Terminal Aerodrome Forecast
Issued by NWS Shreveport, LA

Home | Current Version | Previous Version | Text Only | Print | Product List | Glossary On
Versions: 1 2 3 4 5 6 7 8 9 10 11 12 13 14
000
FTUS44 KSHV 190500
TAFSHV
TAF
KSHV 190537Z 1906/2006 06006KT P6SM SCT011 OVC020
      TEMPO 1907/1909 BKN010
     FM190900 04006KT P6SM BKN011
     FM191200 04007KT 6SM -RA BR OVC007
     FM191400 04007KT 3SM -SHRA BR OVC006
     FM191800 05007KT 5SM -RA BR OVC007
     FM192200 04006KT 6SM BR OVC007=

USA.gov is the U.S. government's official web portal to all federal, state and local government web resources and services.